createdAt,value
2023-12-23T00:00:00.348Z,979.8
2023-12-23T00:10:00.532Z,979.8
2023-12-23T00:20:00.599Z,979.9
2023-12-23T00:30:00.360Z,979.8
2023-12-23T00:40:00.393Z,979.6
2023-12-23T00:50:00.488Z,980.0
2023-12-23T01:00:00.406Z,980.0
2023-12-23T01:10:00.381Z,980.9
2023-12-23T01:20:00.476Z,980.9
2023-12-23T01:30:00.530Z,981.3
2023-12-23T01:40:00.365Z,981.0
2023-12-23T01:50:00.502Z,981.1
2023-12-23T02:00:00.457Z,981.4
2023-12-23T02:10:00.408Z,981.7
2023-12-23T02:20:00.497Z,981.6
2023-12-23T02:30:00.423Z,981.7
2023-12-23T02:40:00.399Z,981.4
2023-12-23T02:50:00.483Z,981.9
2023-12-23T03:00:02.394Z,981.9
2023-12-23T03:10:00.387Z,982.0
2023-12-23T03:20:00.445Z,982.2
2023-12-23T03:30:00.389Z,982.7
2023-12-23T03:40:00.473Z,982.3
2023-12-23T03:50:00.521Z,982.5
2023-12-23T04:00:00.403Z,982.6
2023-12-23T04:10:00.384Z,982.6
2023-12-23T04:20:00.425Z,982.4
2023-12-23T04:30:00.498Z,982.6
2023-12-23T04:40:00.357Z,982.8
2023-12-23T04:50:00.469Z,982.7
2023-12-23T05:00:00.412Z,982.9
2023-12-23T05:10:00.544Z,983.1
2023-12-23T05:20:00.489Z,983.5
2023-12-23T05:30:00.608Z,983.7
2023-12-23T05:40:00.464Z,983.9
2023-12-23T05:50:00.479Z,984.2
2023-12-23T06:00:00.533Z,984.1
2023-12-23T06:10:00.388Z,984.2
2023-12-23T06:20:00.524Z,983.9
2023-12-23T06:30:00.392Z,984.3
2023-12-23T06:40:00.454Z,984.7
2023-12-23T06:50:00.769Z,984.4
2023-12-23T07:00:00.384Z,984.6
2023-12-23T07:10:04.925Z,984.8
2023-12-23T07:20:00.524Z,985.1
2023-12-23T07:30:00.491Z,985.1
2023-12-23T07:40:00.479Z,985.2
2023-12-23T07:50:00.531Z,985.2
2023-12-23T08:00:00.382Z,985.2
2023-12-23T08:10:00.401Z,985.3
2023-12-23T08:20:00.666Z,985.4
2023-12-23T08:30:00.457Z,985.5
2023-12-23T08:40:00.417Z,985.5
2023-12-23T08:50:00.509Z,985.6
2023-12-23T09:00:00.533Z,985.6
2023-12-23T09:10:00.387Z,985.4
2023-12-23T09:20:00.577Z,985.2
2023-12-23T09:30:00.724Z,985.0
2023-12-23T09:40:00.811Z,984.6
2023-12-23T09:50:00.767Z,984.4
2023-12-23T10:00:00.681Z,984.5
2023-12-23T10:10:00.656Z,984.2
2023-12-23T10:20:00.806Z,983.9
2023-12-23T10:30:00.655Z,983.5
2023-12-23T10:40:00.671Z,983.4
2023-12-23T10:50:00.756Z,983.1
2023-12-23T11:00:00.702Z,982.7
2023-12-23T11:10:00.679Z,982.5
2023-12-23T11:20:00.952Z,982.0
2023-12-23T11:30:01.807Z,982.0
2023-12-23T11:40:00.698Z,981.7
2023-12-23T11:50:00.691Z,981.4
2023-12-23T12:00:00.745Z,981.2
2023-12-23T12:10:00.668Z,981.1
2023-12-23T12:20:00.785Z,980.9
2023-12-23T12:30:00.735Z,980.8
2023-12-23T12:40:03.549Z,980.7
2023-12-23T12:50:06.401Z,980.8
2023-12-23T13:00:00.796Z,981.2
2023-12-23T13:10:00.659Z,981.5
2023-12-23T13:20:00.863Z,981.6
2023-12-23T13:30:00.606Z,981.8
2023-12-23T13:40:00.676Z,981.8
2023-12-23T13:50:00.788Z,981.9
2023-12-23T14:00:00.655Z,982.1
2023-12-23T14:10:00.672Z,982.3
2023-12-23T14:20:00.714Z,982.3
2023-12-23T14:30:00.650Z,982.4
2023-12-23T14:40:00.624Z,982.5
2023-12-23T14:50:00.812Z,982.6
2023-12-23T15:00:00.754Z,982.8
2023-12-23T15:10:00.661Z,983.0
2023-12-23T15:20:00.968Z,983.0
2023-12-23T15:30:00.705Z,983.1
2023-12-23T15:40:00.661Z,983.2
2023-12-23T15:50:00.826Z,983.3
2023-12-23T16:00:00.733Z,983.5
2023-12-23T16:10:00.664Z,983.6
2023-12-23T16:20:00.724Z,983.5
2023-12-23T16:30:00.712Z,983.4
2023-12-23T16:40:00.775Z,983.4
2023-12-23T16:50:04.607Z,983.4
2023-12-23T17:00:00.694Z,983.6
2023-12-23T17:10:00.634Z,983.8
2023-12-23T17:20:00.706Z,984.0
2023-12-23T17:30:00.687Z,984.3
2023-12-23T17:40:00.689Z,984.4
2023-12-23T17:50:00.792Z,984.4
2023-12-23T18:00:00.700Z,984.5
2023-12-23T18:10:00.657Z,984.6
2023-12-23T18:20:00.770Z,984.6
2023-12-23T18:30:00.817Z,984.9
2023-12-23T18:40:00.712Z,984.9
2023-12-23T18:50:00.690Z,985.1
2023-12-23T19:00:00.617Z,985.4
2023-12-23T19:10:00.663Z,985.6
2023-12-23T19:20:00.661Z,985.8
2023-12-23T19:30:00.619Z,986.0
2023-12-23T19:40:07.001Z,986.3
2023-12-23T19:50:00.685Z,986.6
2023-12-23T20:00:00.726Z,986.9
2023-12-23T20:10:00.643Z,987.1
2023-12-23T20:20:00.705Z,987.4
2023-12-23T20:30:00.794Z,987.8
2023-12-23T20:40:00.678Z,988.0
2023-12-23T20:50:00.720Z,988.2
2023-12-23T21:00:00.690Z,988.5
2023-12-23T21:10:00.634Z,988.7
2023-12-23T21:20:00.768Z,988.9
2023-12-23T21:30:00.619Z,989.2
2023-12-23T21:40:00.662Z,989.2
2023-12-23T21:50:00.675Z,989.5
2023-12-23T22:00:00.736Z,989.6
2023-12-23T22:10:00.660Z,989.7
2023-12-23T22:20:00.733Z,989.7
2023-12-23T22:30:00.626Z,989.7
2023-12-23T22:40:00.752Z,989.9
2023-12-23T22:50:00.730Z,990.0
2023-12-23T23:00:00.769Z,990.1
2023-12-23T23:10:00.748Z,990.4
2023-12-23T23:20:00.789Z,990.6
2023-12-23T23:30:00.606Z,990.8
2023-12-23T23:40:00.680Z,991.1
2023-12-23T23:50:02.346Z,991.0
